createdAt,value
2023-02-12T00:00:03.635Z,50.47
2023-02-12T00:01:08.843Z,51.19
2023-02-12T00:02:11.577Z,50.81
2023-02-12T00:03:13.369Z,50.99
2023-02-12T00:04:16.588Z,50.85
2023-02-12T00:05:18.440Z,50.82
2023-02-12T00:06:21.123Z,50.89
2023-02-12T00:07:22.852Z,50.76
2023-02-12T00:08:25.597Z,51.19
2023-02-12T00:09:27.323Z,51.23
2023-02-12T00:10:30.025Z,50.93
2023-02-12T00:11:33.177Z,50.80
2023-02-12T00:12:35.990Z,50.69
2023-02-12T00:13:38.165Z,51.08
2023-02-12T00:14:40.997Z,51.00
2023-02-12T00:15:43.353Z,50.63
2023-02-12T00:16:46.376Z,50.98
2023-02-12T00:17:48.151Z,51.11
2023-02-12T00:18:54.601Z,50.85
2023-02-12T00:19:56.303Z,50.74
2023-02-12T00:21:00.699Z,50.83
2023-02-12T00:22:02.689Z,50.60
2023-02-12T00:23:05.701Z,51.11
2023-02-12T00:24:07.675Z,50.83
2023-02-12T00:25:10.414Z,50.88
2023-02-12T00:26:13.916Z,51.04
2023-02-12T00:27:18.070Z,50.85
2023-02-12T00:28:19.765Z,50.60
2023-02-12T00:29:22.514Z,50.58
2023-02-12T00:30:24.414Z,50.88
2023-02-12T00:31:29.203Z,50.92
2023-02-12T00:32:31.004Z,50.89
2023-02-12T00:33:33.691Z,50.52
2023-02-12T00:34:35.508Z,50.93
2023-02-12T00:35:38.207Z,50.83
2023-02-12T00:36:40.976Z,50.75
2023-02-12T00:37:42.763Z,50.72
2023-02-12T00:38:45.617Z,50.86
2023-02-12T00:39:47.403Z,50.69
2023-02-12T00:40:50.244Z,51.00
2023-02-12T00:41:51.987Z,50.46
2023-02-12T00:42:56.026Z,50.78
2023-02-12T00:43:58.194Z,50.79
2023-02-12T00:45:00.900Z,50.91
2023-02-12T00:46:02.754Z,50.95
2023-02-12T00:47:05.806Z,50.97
2023-02-12T00:48:07.787Z,50.91
2023-02-12T00:49:10.497Z,50.68
2023-02-12T00:50:12.273Z,50.83
2023-02-12T00:51:15.317Z,50.62
2023-02-12T00:52:17.041Z,50.98
2023-02-12T00:53:20.322Z,50.81
2023-02-12T00:54:22.115Z,50.67
2023-02-12T00:55:24.827Z,50.65
2023-02-12T00:56:26.560Z,50.46
2023-02-12T00:57:29.222Z,50.74
2023-02-12T00:58:32.304Z,50.68
2023-02-12T00:59:37.843Z,50.82
2023-02-12T01:00:39.683Z,51.05
2023-02-12T01:01:42.445Z,50.37
2023-02-12T01:02:44.216Z,50.55
2023-02-12T01:03:46.938Z,50.70
2023-02-12T01:04:48.660Z,50.72
2023-02-12T01:05:51.390Z,50.44
2023-02-12T01:06:53.152Z,50.58
2023-02-12T01:07:56.337Z,50.53
2023-02-12T01:08:58.069Z,50.69
2023-02-12T01:10:00.750Z,50.52
2023-02-12T01:11:04.592Z,50.72
2023-02-12T01:12:07.796Z,50.54
2023-02-12T01:13:12.293Z,50.75
2023-02-12T01:14:16.352Z,50.69
2023-02-12T01:15:18.717Z,50.63
2023-02-12T01:16:23.771Z,50.67
2023-02-12T01:17:25.526Z,51.34
2023-02-12T01:18:28.258Z,50.98
2023-02-12T01:19:30.142Z,50.78
2023-02-12T01:20:32.952Z,50.67
2023-02-12T01:21:35.530Z,50.84
2023-02-12T01:22:39.099Z,50.78
2023-02-12T01:23:41.102Z,50.41
2023-02-12T01:24:43.792Z,50.65
2023-02-12T01:25:45.535Z,50.61
2023-02-12T01:26:48.285Z,50.53
2023-02-12T01:27:53.131Z,50.49
2023-02-12T01:28:58.236Z,50.63
2023-02-12T01:30:01.412Z,50.71
2023-02-12T01:31:05.160Z,50.52
2023-02-12T01:32:08.019Z,50.56
2023-02-12T01:33:09.781Z,50.59
2023-02-12T01:34:13.083Z,50.73
2023-02-12T01:35:14.812Z,50.66
2023-02-12T01:36:17.773Z,50.61
2023-02-12T01:37:19.594Z,50.60
2023-02-12T01:38:22.287Z,50.72
2023-02-12T01:39:23.996Z,50.62
2023-02-12T01:40:26.728Z,50.61
2023-02-12T01:41:30.537Z,50.51
2023-02-12T01:42:33.211Z,50.65
2023-02-12T01:43:35.533Z,50.49
2023-02-12T01:44:40.794Z,50.51
2023-02-12T01:45:48.992Z,50.61
2023-02-12T01:46:56.647Z,50.23
2023-02-12T01:48:00.766Z,50.58
2023-02-12T01:49:04.565Z,50.70
2023-02-12T01:50:08.215Z,50.57
2023-02-12T01:51:12.370Z,50.18
2023-02-12T01:52:16.369Z,50.50
2023-02-12T01:53:20.355Z,50.18
2023-02-12T01:54:25.746Z,50.57
2023-02-12T01:55:27.809Z,50.56
2023-02-12T01:56:31.287Z,50.61
2023-02-12T01:57:35.500Z,50.48
2023-02-12T01:58:42.059Z,50.35
2023-02-12T01:59:45.935Z,50.77
2023-02-12T02:00:50.035Z,50.49
2023-02-12T02:01:52.059Z,50.64
2023-02-12T02:02:57.740Z,50.54
2023-02-12T02:04:02.382Z,50.24
2023-02-12T02:05:05.944Z,50.36
2023-02-12T02:06:10.557Z,50.56
2023-02-12T02:07:13.654Z,50.51
2023-02-12T02:08:15.582Z,50.64
2023-02-12T02:09:19.277Z,50.56
2023-02-12T02:10:21.094Z,50.53
2023-02-12T02:11:41.501Z,50.61
2023-02-12T02:13:01.950Z,50.56
2023-02-12T02:14:22.486Z,50.70
2023-02-12T02:15:26.438Z,50.38
2023-02-12T02:16:30.919Z,50.56
2023-02-12T02:17:44.720Z,50.44
2023-02-12T02:18:52.625Z,51.16
2023-02-12T02:20:31.887Z,50.68
2023-02-12T02:21:51.075Z,50.45
2023-02-12T02:23:03.526Z,50.41
2023-02-12T02:24:44.432Z,50.46
2023-02-12T02:26:23.410Z,50.60
2023-02-12T02:27:32.257Z,50.30
2023-02-12T02:28:50.916Z,50.39
2023-02-12T02:30:18.249Z,50.34
2023-02-12T02:31:27.195Z,50.44
2023-02-12T02:32:31.407Z,50.47
2023-02-12T02:33:38.176Z,50.48
2023-02-12T02:34:44.976Z,50.13
2023-02-12T02:35:50.679Z,50.77
2023-02-12T02:37:00.826Z,50.33
2023-02-12T02:38:21.526Z,50.75
2023-02-12T02:39:28.191Z,50.76
2023-02-12T02:40:33.926Z,50.84
2023-02-12T02:41:40.990Z,50.69
2023-02-12T02:42:46.321Z,50.80
2023-02-12T02:43:50.579Z,50.46
2023-02-12T02:44:54.714Z,50.63
2023-02-12T02:46:02.730Z,50.79
2023-02-12T02:47:07.677Z,50.69
2023-02-12T02:48:13.968Z,50.55
2023-02-12T02:49:18.287Z,50.78
2023-02-12T02:50:24.493Z,50.68
2023-02-12T02:51:28.139Z,50.99
2023-02-12T02:52:35.366Z,50.79
2023-02-12T02:53:39.791Z,50.93
2023-02-12T02:54:45.816Z,50.84
2023-02-12T02:55:50.550Z,50.72
2023-02-12T02:56:57.760Z,50.70
2023-02-12T02:58:02.599Z,50.75
2023-02-12T02:59:11.491Z,51.02
2023-02-12T03:00:15.196Z,50.71
2023-02-12T03:01:21.614Z,50.67
2023-02-12T03:02:25.777Z,50.62
2023-02-12T03:03:30.863Z,51.02
2023-02-12T03:04:35.456Z,51.07
2023-02-12T03:05:40.716Z,50.77
2023-02-12T03:06:47.200Z,50.42
2023-02-12T03:07:53.379Z,50.74
2023-02-12T03:08:57.404Z,50.68
2023-02-12T03:10:02.547Z,50.86
2023-02-12T03:11:09.407Z,50.75
2023-02-12T03:12:15.906Z,50.78
2023-02-12T03:13:21.526Z,50.84
2023-02-12T03:14:28.336Z,50.88
2023-02-12T03:15:33.272Z,51.08
2023-02-12T03:16:41.519Z,50.81
2023-02-12T03:17:45.251Z,51.28
2023-02-12T03:18:53.059Z,50.81
2023-02-12T03:19:57.703Z,51.12
2023-02-12T03:21:02.172Z,51.06
2023-02-12T03:22:06.086Z,51.13
2023-02-12T03:23:12.305Z,50.95
2023-02-12T03:24:17.270Z,51.17
2023-02-12T03:25:22.736Z,50.83
2023-02-12T03:26:26.904Z,51.11
2023-02-12T03:27:33.280Z,51.31
2023-02-12T03:28:37.176Z,50.79
2023-02-12T03:29:39.993Z,50.85
2023-02-12T03:30:44.814Z,51.15
2023-02-12T03:31:57.559Z,51.23
2023-02-12T03:33:05.429Z,50.82
2023-02-12T03:34:11.826Z,51.18
2023-02-12T03:35:16.978Z,50.93
2023-02-12T03:36:28.606Z,50.91
2023-02-12T03:37:33.608Z,50.72
2023-02-12T03:38:40.167Z,51.09
2023-02-12T03:39:49.945Z,51.16
2023-02-12T03:40:57.610Z,50.64
2023-02-12T03:42:04.284Z,50.96
2023-02-12T03:43:11.264Z,50.91
2023-02-12T03:44:18.727Z,50.95
2023-02-12T03:45:29.078Z,51.20
2023-02-12T03:46:38.159Z,51.10
2023-02-12T03:47:45.582Z,51.39
2023-02-12T03:48:56.868Z,51.01
2023-02-12T03:50:04.734Z,50.96
2023-02-12T03:51:16.822Z,50.98
2023-02-12T03:52:19.597Z,51.04
2023-02-12T03:53:21.422Z,51.22
2023-02-12T03:54:24.337Z,51.05
2023-02-12T03:55:26.310Z,51.29
2023-02-12T03:56:34.539Z,51.06
2023-02-12T03:57:40.154Z,51.05
2023-02-12T03:58:44.264Z,50.99
2023-02-12T03:59:46.208Z,50.98
2023-02-12T04:00:49.287Z,51.07
2023-02-12T04:01:53.207Z,50.98
2023-02-12T04:02:58.102Z,51.15
2023-02-12T04:04:04.332Z,50.80
2023-02-12T04:05:08.345Z,50.90
2023-02-12T04:06:20.383Z,51.30
2023-02-12T04:07:23.372Z,51.10
2023-02-12T04:08:26.165Z,51.05
2023-02-12T04:09:29.720Z,51.03
2023-02-12T04:10:34.727Z,51.07
2023-02-12T04:11:46.687Z,51.08
2023-02-12T04:12:53.210Z,51.46
2023-02-12T04:14:09.952Z,51.14
2023-02-12T04:15:34.221Z,51.10
2023-02-12T04:16:42.910Z,51.02
2023-02-12T04:17:50.310Z,51.02
2023-02-12T04:18:55.000Z,51.20
2023-02-12T04:20:04.420Z,51.55
2023-02-12T04:21:15.306Z,51.37
2023-02-12T04:22:26.814Z,51.53
2023-02-12T04:23:41.671Z,51.42
2023-02-12T04:24:51.055Z,51.56
2023-02-12T04:26:00.270Z,51.24
2023-02-12T04:27:05.605Z,51.52
2023-02-12T04:28:13.426Z,51.29
2023-02-12T04:29:20.579Z,51.71
2023-02-12T04:30:26.227Z,51.18
2023-02-12T04:31:30.938Z,51.19
2023-02-12T04:32:38.106Z,51.51
2023-02-12T04:33:42.859Z,50.95
2023-02-12T04:34:51.099Z,51.49
2023-02-12T04:35:57.346Z,51.13
2023-02-12T04:37:03.405Z,51.27
2023-02-12T04:38:09.829Z,51.07
2023-02-12T04:39:17.486Z,51.06
2023-02-12T04:40:21.035Z,51.09
2023-02-12T04:41:24.028Z,51.18
2023-02-12T04:42:26.234Z,51.15
2023-02-12T04:43:30.200Z,50.91
2023-02-12T04:44:33.792Z,51.25
2023-02-12T04:45:37.819Z,51.16
2023-02-12T04:46:39.504Z,51.36
2023-02-12T04:47:42.221Z,51.20
2023-02-12T04:48:51.074Z,51.14
2023-02-12T04:49:55.189Z,51.25
2023-02-12T04:50:56.950Z,51.05
2023-02-12T04:51:59.676Z,50.94
2023-02-12T04:53:01.636Z,51.24
2023-02-12T04:54:04.499Z,51.25
2023-02-12T04:55:07.835Z,51.29
2023-02-12T04:56:11.837Z,51.25
2023-02-12T04:57:14.523Z,51.18
2023-02-12T04:58:16.756Z,50.95
2023-02-12T04:59:19.676Z,51.04
2023-02-12T05:00:21.846Z,51.07
2023-02-12T05:01:24.757Z,51.07
2023-02-12T05:02:26.679Z,51.00
2023-02-12T05:03:29.336Z,51.26
2023-02-12T05:04:31.062Z,51.18
2023-02-12T05:05:35.270Z,51.35
2023-02-12T05:06:37.674Z,51.21
2023-02-12T05:07:40.356Z,51.08
2023-02-12T05:08:42.035Z,51.06
2023-02-12T05:09:44.850Z,51.12
2023-02-12T05:10:46.635Z,51.17
2023-02-12T05:11:49.584Z,51.25
2023-02-12T05:12:52.063Z,51.37
2023-02-12T05:13:55.234Z,51.27
2023-02-12T05:14:57.531Z,51.16
2023-02-12T05:16:00.399Z,51.16
2023-02-12T05:17:02.189Z,51.27
2023-02-12T05:18:05.100Z,51.28
2023-02-12T05:19:09.395Z,51.13
2023-02-12T05:20:12.959Z,51.13
2023-02-12T05:21:16.189Z,51.13
2023-02-12T05:22:19.258Z,51.37
2023-02-12T05:23:21.014Z,51.09
2023-02-12T05:24:23.712Z,51.21
2023-02-12T05:25:25.439Z,51.47
2023-02-12T05:26:28.135Z,51.28
2023-02-12T05:27:29.853Z,51.16
2023-02-12T05:28:32.777Z,51.17
2023-02-12T05:29:34.769Z,51.69
2023-02-12T05:30:37.506Z,51.39
2023-02-12T05:31:39.477Z,51.21
2023-02-12T05:32:42.269Z,51.04
2023-02-12T05:33:47.846Z,51.10
2023-02-12T05:34:50.624Z,51.34
2023-02-12T05:35:52.637Z,51.17
2023-02-12T05:36:56.929Z,51.42
2023-02-12T05:37:58.760Z,51.41
2023-02-12T05:39:01.472Z,51.36
2023-02-12T05:40:04.308Z,51.38
2023-02-12T05:41:09.472Z,51.28
2023-02-12T05:42:11.165Z,51.40
2023-02-12T05:43:14.016Z,51.34
2023-02-12T05:44:16.845Z,51.28
2023-02-12T05:45:18.638Z,51.45
2023-02-12T05:46:22.443Z,51.36
2023-02-12T05:47:24.318Z,51.34
2023-02-12T05:48:27.183Z,51.45
2023-02-12T05:49:29.140Z,51.47
2023-02-12T05:50:32.018Z,51.09
2023-02-12T05:51:33.834Z,51.54
2023-02-12T05:52:37.936Z,51.50
2023-02-12T05:53:40.356Z,51.46
2023-02-12T05:54:43.042Z,51.57
2023-02-12T05:55:44.723Z,51.54
2023-02-12T05:56:48.568Z,51.48
2023-02-12T05:57:51.203Z,51.41
2023-02-12T05:58:55.393Z,51.75
2023-02-12T05:59:57.315Z,51.61
2023-02-12T06:00:59.947Z,51.51
2023-02-12T06:02:01.607Z,51.64
2023-02-12T06:03:04.495Z,52.03
2023-02-12T06:04:08.738Z,51.61
2023-02-12T06:05:11.517Z,51.81
2023-02-12T06:06:13.768Z,51.87
2023-02-12T06:07:16.443Z,51.70
2023-02-12T06:09:35.114Z,51.90
2023-02-12T06:10:37.334Z,52.16
2023-02-12T06:11:40.358Z,51.98
2023-02-12T06:12:42.021Z,52.02
2023-02-12T06:13:45.250Z,51.93
2023-02-12T06:14:48.112Z,51.96
2023-02-12T06:15:49.962Z,51.78
2023-02-12T06:16:53.145Z,52.28
2023-02-12T06:17:54.864Z,51.99
2023-02-12T06:18:57.830Z,51.97
2023-02-12T06:19:59.541Z,51.79
2023-02-12T06:21:04.285Z,52.12
2023-02-12T06:22:07.024Z,51.95
2023-02-12T06:23:08.745Z,51.88
2023-02-12T06:24:12.110Z,52.03
2023-02-12T06:25:15.320Z,52.24
2023-02-12T06:26:18.361Z,52.05
2023-02-12T06:27:20.143Z,51.92
2023-02-12T06:28:22.878Z,51.83
2023-02-12T06:29:25.630Z,52.01
2023-02-12T06:30:27.388Z,51.78
2023-02-12T06:31:32.359Z,51.88
2023-02-12T06:32:34.105Z,52.04
2023-02-12T06:33:36.780Z,51.88
2023-02-12T06:34:38.427Z,52.01
2023-02-12T06:35:41.247Z,52.19
2023-02-12T06:36:44.606Z,52.14
2023-02-12T06:37:47.319Z,52.13
2023-02-12T06:38:49.376Z,52.40
2023-02-12T06:39:52.210Z,52.17
2023-02-12T06:40:55.340Z,52.31
2023-02-12T06:41:58.048Z,51.99
2023-02-12T06:42:59.870Z,52.20
2023-02-12T06:44:02.536Z,51.99
2023-02-12T06:45:04.945Z,52.47
2023-02-12T06:46:08.133Z,52.16
2023-02-12T06:47:09.881Z,52.43
2023-02-12T06:48:12.621Z,51.98
2023-02-12T06:49:14.916Z,52.42
2023-02-12T06:50:18.019Z,52.29
2023-02-12T06:51:21.833Z,52.51
2023-02-12T06:52:24.506Z,52.19
2023-02-12T06:53:26.217Z,52.00
2023-02-12T06:54:28.895Z,52.25
2023-02-12T06:55:30.601Z,52.29
2023-02-12T06:56:34.771Z,52.18
2023-02-12T06:57:36.509Z,52.05
2023-02-12T06:58:40.132Z,52.29
2023-02-12T06:59:41.869Z,52.17
2023-02-12T07:00:44.623Z,52.14
2023-02-12T07:01:47.643Z,52.08
2023-02-12T07:02:52.974Z,52.26
2023-02-12T07:03:56.774Z,51.81
2023-02-12T07:04:58.457Z,52.42
2023-02-12T07:06:01.103Z,52.42
2023-02-12T07:07:02.824Z,51.97
2023-02-12T07:08:05.572Z,52.29
2023-02-12T07:09:08.253Z,52.42
2023-02-12T07:10:11.065Z,52.24
2023-02-12T07:11:13.910Z,52.25
2023-02-12T07:12:17.018Z,52.03
2023-02-12T07:13:19.704Z,52.25
2023-02-12T07:14:21.554Z,52.25
2023-02-12T07:15:24.291Z,52.32
2023-02-12T07:16:26.491Z,52.30
2023-02-12T07:17:30.602Z,52.42
2023-02-12T07:18:32.341Z,52.15
2023-02-12T07:19:35.192Z,51.92
2023-02-12T07:20:37.013Z,52.30
2023-02-12T07:21:39.696Z,52.27
2023-02-12T07:22:41.342Z,52.13
2023-02-12T07:23:50.429Z,52.22
2023-02-12T07:24:53.770Z,52.19
2023-02-12T07:25:56.653Z,52.34
2023-02-12T07:26:59.398Z,52.28
2023-02-12T07:28:03.521Z,52.21
2023-02-12T07:29:05.470Z,52.38
2023-02-12T07:30:09.511Z,52.72
2023-02-12T07:31:13.062Z,52.72
2023-02-12T07:32:15.883Z,52.46
2023-02-12T07:33:18.278Z,52.75
2023-02-12T07:34:20.993Z,52.67
2023-02-12T07:35:23.755Z,52.53
2023-02-12T07:36:28.323Z,52.90
2023-02-12T07:37:30.094Z,52.83
2023-02-12T07:38:33.915Z,52.93
2023-02-12T07:39:36.600Z,52.77
2023-02-12T07:40:38.381Z,52.85
2023-02-12T07:41:41.064Z,52.56
2023-02-12T07:42:42.795Z,52.66
2023-02-12T07:43:48.064Z,52.74
2023-02-12T07:44:49.850Z,52.81
2023-02-12T07:45:52.626Z,52.75
2023-02-12T07:46:54.392Z,52.83
2023-02-12T07:47:57.047Z,52.91
2023-02-12T07:48:59.856Z,52.91
2023-02-12T07:50:02.621Z,52.81
2023-02-12T07:51:06.429Z,52.80
2023-02-12T07:52:10.942Z,52.71
2023-02-12T07:53:13.910Z,52.74
2023-02-12T07:54:16.633Z,52.66
2023-02-12T07:55:18.358Z,52.96
2023-02-12T07:56:22.675Z,52.74
2023-02-12T07:57:24.749Z,53.06
2023-02-12T07:58:27.527Z,52.81
2023-02-12T07:59:31.542Z,53.08
2023-02-12T08:00:33.219Z,52.87
2023-02-12T08:01:37.270Z,52.83
2023-02-12T08:02:39.049Z,52.89
2023-02-12T08:03:41.875Z,52.98
2023-02-12T08:04:44.575Z,52.86
2023-02-12T08:05:46.284Z,52.90
2023-02-12T08:06:50.439Z,52.93
2023-02-12T08:07:52.132Z,52.84
2023-02-12T08:08:57.190Z,52.84
2023-02-12T08:09:59.043Z,52.88
2023-02-12T08:11:03.467Z,52.92
2023-02-12T08:12:06.592Z,52.82
2023-02-12T08:13:08.338Z,52.45
2023-02-12T08:14:13.417Z,52.89
2023-02-12T08:15:16.736Z,52.87
2023-02-12T08:16:21.589Z,52.88
2023-02-12T08:17:23.327Z,52.83
2023-02-12T08:18:26.033Z,52.79
2023-02-12T08:19:27.814Z,52.95
2023-02-12T08:20:30.676Z,52.64
2023-02-12T08:21:32.487Z,52.88
2023-02-12T08:22:35.189Z,52.81
2023-02-12T08:23:36.891Z,52.85
2023-02-12T08:24:39.540Z,52.74
2023-02-12T08:25:41.210Z,52.73
2023-02-12T08:26:44.295Z,52.75
2023-02-12T08:27:46.062Z,52.47
2023-02-12T08:28:50.406Z,52.73
2023-02-12T08:29:52.124Z,52.49
2023-02-12T08:31:01.443Z,52.48
2023-02-12T08:32:06.382Z,52.57
2023-02-12T08:33:08.235Z,52.58
2023-02-12T08:34:17.883Z,52.72
2023-02-12T08:35:19.587Z,52.72
2023-02-12T08:36:26.555Z,52.63
2023-02-12T08:37:28.241Z,52.75
2023-02-12T08:38:32.446Z,52.61
2023-02-12T08:39:35.587Z,52.53
2023-02-12T08:40:37.386Z,52.27
2023-02-12T08:41:42.229Z,52.49
2023-02-12T08:42:43.910Z,52.57
2023-02-12T08:43:46.637Z,52.52
2023-02-12T08:44:48.332Z,52.12
2023-02-12T08:45:51.045Z,52.08
2023-02-12T08:46:55.914Z,52.33
2023-02-12T08:47:57.581Z,52.05
2023-02-12T08:49:02.323Z,51.97
2023-02-12T08:50:05.478Z,52.20
2023-02-12T08:51:09.270Z,51.91
2023-02-12T08:52:11.978Z,52.01
2023-02-12T08:53:13.637Z,52.07
2023-02-12T08:54:18.720Z,51.93
2023-02-12T08:55:20.432Z,52.41
2023-02-12T08:56:24.190Z,51.83
2023-02-12T08:57:26.908Z,51.93
2023-02-12T08:58:28.968Z,52.20
2023-02-12T08:59:32.081Z,52.24
2023-02-12T09:00:33.804Z,52.06
2023-02-12T09:01:38.992Z,52.27
2023-02-12T09:02:46.162Z,51.96
2023-02-12T09:03:52.110Z,52.18
2023-02-12T09:04:54.978Z,51.81
2023-02-12T09:05:57.229Z,51.70
2023-02-12T09:07:00.145Z,51.94
2023-02-12T09:08:01.824Z,51.78
2023-02-12T09:09:04.753Z,51.63
2023-02-12T09:10:07.955Z,51.79
2023-02-12T09:11:12.577Z,51.76
2023-02-12T09:12:15.278Z,51.40
2023-02-12T09:13:17.017Z,51.49
2023-02-12T09:14:23.758Z,51.61
2023-02-12T09:15:25.694Z,51.87
2023-02-12T09:16:29.136Z,51.82
2023-02-12T09:17:30.914Z,51.40
2023-02-12T09:18:35.032Z,51.36
2023-02-12T09:19:37.803Z,51.36
2023-02-12T09:20:44.407Z,51.50
2023-02-12T09:21:47.130Z,51.27
2023-02-12T09:22:48.878Z,51.37
2023-02-12T09:23:51.662Z,51.24
2023-02-12T09:24:53.342Z,51.49
2023-02-12T09:25:56.253Z,51.48
2023-02-12T09:26:58.153Z,51.60
2023-02-12T09:28:01.001Z,51.72
2023-02-12T09:29:05.237Z,51.15
2023-02-12T09:30:08.349Z,51.01
2023-02-12T09:31:12.675Z,50.98
2023-02-12T09:32:14.539Z,51.21
2023-02-12T09:33:17.391Z,50.90
2023-02-12T09:34:20.508Z,51.35
2023-02-12T09:35:23.303Z,51.39
2023-02-12T09:36:25.109Z,51.41
2023-02-12T09:37:27.785Z,50.79
2023-02-12T09:38:30.584Z,51.12
2023-02-12T09:39:33.495Z,50.86
2023-02-12T09:40:40.942Z,51.18
2023-02-12T09:42:31.527Z,50.86
2023-02-12T09:43:38.678Z,51.16
2023-02-12T09:44:45.080Z,50.77
2023-02-12T09:45:53.096Z,50.98
2023-02-12T09:46:59.919Z,50.66
2023-02-12T09:48:12.788Z,50.89
2023-02-12T09:49:23.760Z,50.53
2023-02-12T09:50:33.631Z,51.08
2023-02-12T09:51:36.635Z,50.52
2023-02-12T09:52:38.424Z,50.87
2023-02-12T09:53:45.782Z,50.71
2023-02-12T09:54:48.463Z,50.49
2023-02-12T09:55:51.159Z,50.85
2023-02-12T09:56:55.805Z,50.88
2023-02-12T09:57:58.611Z,50.77
2023-02-12T09:59:03.003Z,50.41
2023-02-12T10:00:09.721Z,50.76
2023-02-12T10:01:14.218Z,50.51
2023-02-12T10:02:17.372Z,50.63
2023-02-12T10:03:20.065Z,50.69
2023-02-12T10:04:25.047Z,50.23
2023-02-12T10:05:32.257Z,49.90
2023-02-12T10:06:39.988Z,50.07
2023-02-12T10:07:58.105Z,49.99
2023-02-12T10:09:07.391Z,49.78
2023-02-12T10:10:19.338Z,49.63
2023-02-12T10:11:30.303Z,49.82
2023-02-12T10:12:38.047Z,49.36
2023-02-12T10:13:45.626Z,49.28
2023-02-12T10:15:01.036Z,49.39
2023-02-12T10:16:11.536Z,49.23
2023-02-12T10:17:21.135Z,49.04
2023-02-12T10:18:43.926Z,49.49
2023-02-12T10:20:20.837Z,49.37
2023-02-12T10:21:35.095Z,49.08
2023-02-12T10:22:56.057Z,49.07
2023-02-12T10:24:12.462Z,49.33
2023-02-12T10:25:24.085Z,48.98
2023-02-12T10:26:30.900Z,48.89
2023-02-12T10:27:38.674Z,48.87
2023-02-12T10:28:42.771Z,48.97
2023-02-12T10:29:46.448Z,48.83
2023-02-12T10:30:52.634Z,48.35
2023-02-12T10:33:04.142Z,48.42
2023-02-12T10:34:16.072Z,48.46
2023-02-12T10:35:21.632Z,48.42
2023-02-12T10:36:35.673Z,48.12
2023-02-12T10:37:40.590Z,47.90
2023-02-12T10:38:47.597Z,48.02
2023-02-12T10:39:53.076Z,48.20
2023-02-12T10:40:58.013Z,47.75
2023-02-12T10:42:04.211Z,47.66
2023-02-12T10:43:08.543Z,47.66
2023-02-12T10:44:13.194Z,47.66
2023-02-12T10:45:18.012Z,47.66
2023-02-12T10:46:20.738Z,47.42
2023-02-12T10:47:23.490Z,47.52
2023-02-12T10:48:28.729Z,47.76
2023-02-12T10:49:31.754Z,47.28
2023-02-12T10:50:42.811Z,47.47
2023-02-12T10:52:03.556Z,47.14
2023-02-12T10:53:06.293Z,47.17
2023-02-12T10:54:33.727Z,47.13
2023-02-12T10:55:37.725Z,47.11
2023-02-12T10:56:39.424Z,46.94
2023-02-12T10:57:42.262Z,46.85
2023-02-12T10:58:52.726Z,46.69
2023-02-12T10:59:58.042Z,46.20
2023-02-12T11:01:00.425Z,46.28
2023-02-12T11:02:03.323Z,46.14
2023-02-12T11:03:10.847Z,46.20
2023-02-12T11:04:22.623Z,46.16
2023-02-12T11:05:26.100Z,46.24
2023-02-12T11:06:33.098Z,46.06
2023-02-12T11:07:49.615Z,46.01
2023-02-12T11:08:52.172Z,45.90
2023-02-12T11:09:56.724Z,45.74
2023-02-12T11:11:05.682Z,45.60
2023-02-12T11:12:19.200Z,45.62
2023-02-12T11:13:26.025Z,45.56
2023-02-12T11:14:29.880Z,45.54
2023-02-12T11:15:38.449Z,45.42
2023-02-12T11:16:46.086Z,45.46
2023-02-12T11:17:57.013Z,45.74
2023-02-12T11:19:01.262Z,45.50
2023-02-12T11:20:23.509Z,45.65
2023-02-12T11:21:26.218Z,45.40
2023-02-12T11:22:29.256Z,45.49
2023-02-12T11:23:33.464Z,45.50
2023-02-12T11:24:36.373Z,45.30
2023-02-12T11:25:39.516Z,45.31
2023-02-12T11:26:42.357Z,45.06
2023-02-12T11:27:45.193Z,45.13
2023-02-12T11:28:54.643Z,45.00
2023-02-12T11:30:18.805Z,44.88
2023-02-12T11:31:23.279Z,44.75
2023-02-12T11:32:25.042Z,44.55
2023-02-12T11:33:33.225Z,44.48
2023-02-12T11:34:36.358Z,44.67
2023-02-12T11:35:49.278Z,44.47
2023-02-12T11:36:53.725Z,44.51
2023-02-12T11:37:58.260Z,44.45
2023-02-12T11:39:01.858Z,44.45
2023-02-12T11:40:03.938Z,44.28
2023-02-12T11:41:10.227Z,44.35
2023-02-12T11:42:17.826Z,44.35
2023-02-12T11:43:19.598Z,44.36
2023-02-12T11:44:24.246Z,44.09
2023-02-12T11:45:30.774Z,44.00
2023-02-12T11:46:33.552Z,44.12
2023-02-12T11:47:36.418Z,43.75
2023-02-12T11:48:41.026Z,43.87
2023-02-12T11:49:52.200Z,43.80
2023-02-12T11:50:56.437Z,43.74
2023-02-12T11:51:59.406Z,43.64
2023-02-12T11:53:08.038Z,43.87
2023-02-12T11:54:20.456Z,43.83
2023-02-12T11:55:24.012Z,43.79
2023-02-12T11:56:41.768Z,43.72
2023-02-12T11:57:46.825Z,43.70
2023-02-12T11:58:50.516Z,43.93
2023-02-12T11:59:53.229Z,43.72
2023-02-12T12:01:04.517Z,43.87
2023-02-12T12:02:19.251Z,43.78
2023-02-12T12:03:24.479Z,43.69
2023-02-12T12:04:29.259Z,43.69
2023-02-12T12:05:35.447Z,43.46
2023-02-12T12:06:41.714Z,43.50
2023-02-12T12:07:46.634Z,43.46
2023-02-12T12:08:51.783Z,43.49
2023-02-12T12:09:58.850Z,43.18
2023-02-12T12:11:05.565Z,43.50
2023-02-12T12:12:13.579Z,43.74
2023-02-12T12:13:25.041Z,43.55
2023-02-12T12:14:30.987Z,43.95
2023-02-12T12:15:53.870Z,44.06
2023-02-12T12:17:33.622Z,44.25
2023-02-12T12:19:00.063Z,44.64
2023-02-12T12:20:07.164Z,44.47
2023-02-12T12:21:14.351Z,44.71
2023-02-12T12:22:24.978Z,44.71
2023-02-12T12:23:33.205Z,44.87
2023-02-12T12:24:42.217Z,44.90
2023-02-12T12:25:47.805Z,45.42
2023-02-12T12:27:00.630Z,45.10
2023-02-12T12:28:13.345Z,45.19
2023-02-12T12:29:20.866Z,45.42
2023-02-12T12:30:25.321Z,45.09
2023-02-12T12:31:31.377Z,45.41
2023-02-12T12:32:36.142Z,45.34
2023-02-12T12:33:42.654Z,45.34
2023-02-12T12:34:44.416Z,45.53
2023-02-12T12:35:59.017Z,45.31
2023-02-12T12:37:22.610Z,45.54
2023-02-12T12:38:32.971Z,45.30
2023-02-12T12:39:41.622Z,45.53
2023-02-12T12:40:54.524Z,45.57
2023-02-12T12:42:15.687Z,45.78
2023-02-12T12:43:23.269Z,45.67
2023-02-12T12:44:42.092Z,45.67
2023-02-12T12:46:18.609Z,45.53
2023-02-12T12:47:26.179Z,45.67
2023-02-12T12:48:43.100Z,45.57
2023-02-12T12:49:59.636Z,45.58
2023-02-12T12:51:11.267Z,45.49
2023-02-12T12:52:27.542Z,45.38
2023-02-12T12:53:42.193Z,45.63
2023-02-12T12:55:01.084Z,45.55
2023-02-12T12:56:13.231Z,45.53
2023-02-12T12:57:24.575Z,45.61
2023-02-12T12:58:36.220Z,45.61
2023-02-12T12:59:47.083Z,45.76
2023-02-12T13:01:01.988Z,45.66
2023-02-12T13:02:39.858Z,45.81
2023-02-12T13:04:23.225Z,45.61
2023-02-12T13:05:48.699Z,45.54
2023-02-12T13:06:58.044Z,45.45
2023-02-12T13:08:05.316Z,45.43
2023-02-12T13:09:28.218Z,45.30
2023-02-12T13:10:34.750Z,45.11
2023-02-12T13:11:43.960Z,45.09
2023-02-12T13:13:23.195Z,45.15
2023-02-12T13:14:35.595Z,44.69
2023-02-12T13:15:42.299Z,44.83
2023-02-12T13:16:47.260Z,44.66
2023-02-12T13:17:53.188Z,44.33
2023-02-12T13:18:58.982Z,44.56
2023-02-12T13:20:09.691Z,44.57
2023-02-12T13:21:17.162Z,44.23
2023-02-12T13:22:21.931Z,44.21
2023-02-12T13:23:30.870Z,43.82
2023-02-12T13:24:37.149Z,43.73
2023-02-12T13:25:48.028Z,43.67
2023-02-12T13:26:53.814Z,43.96
2023-02-12T13:27:56.133Z,43.98
2023-02-12T13:29:03.153Z,43.85
2023-02-12T13:30:07.497Z,43.75
2023-02-12T13:31:32.026Z,43.65
2023-02-12T13:32:40.692Z,43.54
2023-02-12T13:33:44.033Z,43.40
2023-02-12T13:34:46.938Z,43.36
2023-02-12T13:35:52.095Z,43.23
2023-02-12T13:36:54.853Z,43.15
2023-02-12T13:37:57.563Z,43.02
2023-02-12T13:39:07.523Z,43.08
2023-02-12T13:40:15.713Z,42.87
2023-02-12T13:41:21.590Z,42.58
2023-02-12T13:42:39.082Z,42.55
2023-02-12T13:43:50.438Z,41.87
2023-02-12T13:44:58.397Z,41.79
2023-02-12T13:46:05.048Z,41.83
2023-02-12T13:47:13.690Z,41.53
2023-02-12T13:48:36.346Z,41.37
2023-02-12T13:49:43.490Z,40.72
2023-02-12T13:50:54.854Z,40.80
2023-02-12T13:52:04.770Z,40.56
2023-02-12T13:53:15.739Z,40.67
2023-02-12T13:54:48.428Z,40.63
2023-02-12T13:56:05.030Z,40.66
2023-02-12T13:57:13.534Z,40.54
2023-02-12T13:58:41.963Z,40.32
2023-02-12T13:59:49.171Z,40.47
2023-02-12T14:00:59.576Z,40.49
2023-02-12T14:02:03.360Z,40.51
2023-02-12T14:03:10.042Z,40.73
2023-02-12T14:04:37.650Z,40.98
2023-02-12T14:05:40.459Z,40.73
2023-02-12T14:06:53.118Z,40.82
2023-02-12T14:07:57.131Z,40.64
2023-02-12T14:09:10.213Z,40.80
2023-02-12T14:10:21.470Z,40.59